createdAt,value
2022-12-22T00:00:38.325Z,66.35
2022-12-22T00:03:29.739Z,72.70
2022-12-22T00:06:15.815Z,61.23
2022-12-22T00:09:05.430Z,63.67
2022-12-22T00:11:52.146Z,73.80
2022-12-22T00:14:38.124Z,70.55
2022-12-22T00:17:44.664Z,62.65
2022-12-22T00:20:31.646Z,64.53
2022-12-22T00:23:17.917Z,73.63
2022-12-22T00:26:04.112Z,65.57
2022-12-22T00:28:50.000Z,61.33
2022-12-22T00:31:35.853Z,66.80
2022-12-22T00:34:25.657Z,72.80
2022-12-22T00:37:13.210Z,58.73
2022-12-22T00:39:58.911Z,62.67
2022-12-22T00:42:45.326Z,69.60
2022-12-22T00:45:31.409Z,58.90
2022-12-22T00:48:18.193Z,57.42
2022-12-22T00:51:05.590Z,62.33
2022-12-22T00:53:51.273Z,56.53
2022-12-22T00:56:37.310Z,61.97
2022-12-22T00:59:23.496Z,54.53
2022-12-22T01:02:09.572Z,75.57
2022-12-22T01:04:55.202Z,53.60
2022-12-22T01:07:43.315Z,64.40
2022-12-22T01:10:31.759Z,66.80
2022-12-22T01:13:18.455Z,61.10
2022-12-22T01:16:04.139Z,54.37
2022-12-22T01:18:49.762Z,61.63
2022-12-22T01:21:36.823Z,59.73
2022-12-22T01:24:29.674Z,56.58
2022-12-22T01:27:15.381Z,56.42
2022-12-22T01:30:01.320Z,54.95
2022-12-22T01:32:47.567Z,73.45
2022-12-22T01:35:38.318Z,53.60
2022-12-22T01:38:24.208Z,58.17
2022-12-22T01:41:12.028Z,50.43
2022-12-22T01:43:58.705Z,61.05
2022-12-22T01:46:46.797Z,62.95
2022-12-22T01:49:34.814Z,60.45
2022-12-22T01:52:21.133Z,59.07
2022-12-22T01:55:07.270Z,64.75
2022-12-22T01:57:55.160Z,53.70
2022-12-22T02:00:41.437Z,64.72
2022-12-22T02:03:34.306Z,53.70
2022-12-22T02:06:31.411Z,52.92
2022-12-22T02:09:32.759Z,53.72
2022-12-22T02:12:23.811Z,61.80
2022-12-22T02:15:19.638Z,48.97
2022-12-22T02:18:12.166Z,50.00
2022-12-22T02:21:00.184Z,59.00
2022-12-22T02:24:03.351Z,59.85
2022-12-22T02:26:52.482Z,55.55
2022-12-22T02:29:41.152Z,51.38
2022-12-22T02:32:27.220Z,51.70
2022-12-22T02:35:12.803Z,49.50
2022-12-22T02:38:04.342Z,55.08
2022-12-22T02:40:54.307Z,47.22
2022-12-22T02:43:53.494Z,55.70
2022-12-22T02:46:43.166Z,50.00
2022-12-22T02:49:36.088Z,52.08
2022-12-22T02:52:29.242Z,52.38
2022-12-22T02:55:15.160Z,47.45
2022-12-22T02:58:00.606Z,53.88
2022-12-22T03:00:48.499Z,54.60
2022-12-22T03:03:34.297Z,49.53
2022-12-22T03:06:20.096Z,47.38
2022-12-22T03:09:05.553Z,61.90
2022-12-22T03:11:51.514Z,53.88
2022-12-22T03:14:37.109Z,51.13
2022-12-22T03:17:24.722Z,57.60
2022-12-22T03:20:10.086Z,48.80
2022-12-22T03:22:55.782Z,56.53
2022-12-22T03:25:41.895Z,59.55
2022-12-22T03:28:11.539Z,42.88
2022-12-22T03:30:40.711Z,50.65
2022-12-22T03:33:10.470Z,46.15
2022-12-22T03:35:38.713Z,53.47
2022-12-22T03:38:07.044Z,56.08
2022-12-22T03:40:35.353Z,54.60
2022-12-22T03:43:20.793Z,55.95
2022-12-22T03:46:06.304Z,49.30
2022-12-22T03:48:36.057Z,52.83
2022-12-22T03:51:04.530Z,58.35
2022-12-22T03:53:32.966Z,52.83
2022-12-22T03:56:07.279Z,46.97
2022-12-22T03:58:36.220Z,60.90
2022-12-22T04:01:08.153Z,54.92
2022-12-22T04:03:38.143Z,55.88
2022-12-22T04:06:06.649Z,57.97
2022-12-22T04:08:35.388Z,54.63
2022-12-22T04:11:20.931Z,59.97
2022-12-22T04:13:49.358Z,63.70
2022-12-22T04:16:17.782Z,71.75
2022-12-22T04:18:47.489Z,59.13
2022-12-22T04:21:15.987Z,59.97
2022-12-22T04:23:44.373Z,63.40
2022-12-22T04:26:12.765Z,58.20
2022-12-22T04:28:41.088Z,58.20
2022-12-22T04:31:09.492Z,71.65
2022-12-22T04:33:37.816Z,56.87
2022-12-22T04:36:08.300Z,59.25
2022-12-22T04:38:36.665Z,52.23
2022-12-22T04:41:05.567Z,79.70
2022-12-22T04:43:39.383Z,60.08
2022-12-22T04:46:08.299Z,78.85
2022-12-22T04:48:37.025Z,60.25
2022-12-22T04:51:07.578Z,61.83
2022-12-22T04:53:36.048Z,58.63
2022-12-22T04:56:05.930Z,55.70
2022-12-22T04:58:35.041Z,63.17
2022-12-22T05:01:10.670Z,54.03
2022-12-22T05:03:39.712Z,50.85
2022-12-22T05:06:09.843Z,60.47
2022-12-22T05:08:38.394Z,73.38
2022-12-22T05:11:06.983Z,81.05
2022-12-22T05:13:35.366Z,62.60
2022-12-22T05:16:08.063Z,67.85
2022-12-22T05:18:37.437Z,55.65
2022-12-22T05:21:08.264Z,74.00
2022-12-22T05:23:38.236Z,58.65
2022-12-22T05:26:06.974Z,56.58
2022-12-22T05:28:35.413Z,62.40
2022-12-22T05:31:05.656Z,74.78
2022-12-22T05:33:34.063Z,59.60
2022-12-22T05:36:03.138Z,63.80
2022-12-22T05:38:31.573Z,61.08
2022-12-22T05:41:04.348Z,66.10
2022-12-22T05:43:33.415Z,73.63
2022-12-22T05:46:03.808Z,59.60
2022-12-22T05:48:37.919Z,72.45
2022-12-22T05:51:08.290Z,58.42
2022-12-22T05:53:37.104Z,84.82
2022-12-22T05:56:08.356Z,70.10
2022-12-22T05:58:39.286Z,64.05
2022-12-22T06:01:08.606Z,65.25
2022-12-22T06:03:37.512Z,72.45
2022-12-22T06:06:06.669Z,70.47
2022-12-22T06:08:35.131Z,68.55
2022-12-22T06:11:03.521Z,70.13
2022-12-22T06:13:33.614Z,66.68
2022-12-22T06:16:03.395Z,70.25
2022-12-22T06:18:32.543Z,64.00
2022-12-22T06:21:00.926Z,66.18
2022-12-22T06:23:30.422Z,74.63
2022-12-22T06:25:59.970Z,75.90
2022-12-22T06:28:29.142Z,66.07
2022-12-22T06:30:59.247Z,65.07
2022-12-22T06:33:27.820Z,59.25
2022-12-22T06:35:59.006Z,57.35
2022-12-22T06:38:29.153Z,61.58
2022-12-22T06:40:57.572Z,60.35
2022-12-22T06:43:25.258Z,68.18
2022-12-22T06:45:55.392Z,68.45
2022-12-22T06:48:25.417Z,68.47
2022-12-22T06:50:53.758Z,58.85
2022-12-22T06:53:22.099Z,59.72
2022-12-22T06:55:50.593Z,72.70
2022-12-22T06:58:19.193Z,72.88
2022-12-22T07:00:49.898Z,61.05
2022-12-22T07:03:18.385Z,72.25
2022-12-22T07:05:48.432Z,72.40
2022-12-22T07:08:16.900Z,73.95
2022-12-22T07:11:01.637Z,63.08
2022-12-22T07:13:34.318Z,61.35
2022-12-22T07:16:03.812Z,57.65
2022-12-22T07:18:33.382Z,57.85
2022-12-22T07:21:05.246Z,53.92
2022-12-22T07:23:35.641Z,66.32
2022-12-22T07:26:04.541Z,63.33
2022-12-22T07:28:34.301Z,73.93
2022-12-22T07:31:02.944Z,63.70
2022-12-22T07:33:31.615Z,59.13
2022-12-22T07:36:06.739Z,47.78
2022-12-22T07:38:36.827Z,69.05
2022-12-22T07:41:26.215Z,58.47
2022-12-22T07:43:53.785Z,62.25
2022-12-22T07:46:22.465Z,82.07
2022-12-22T07:49:09.087Z,80.07
2022-12-22T07:51:40.954Z,81.50
2022-12-22T07:54:10.440Z,79.97
2022-12-22T07:56:39.333Z,92.43
2022-12-22T07:59:08.625Z,78.60
2022-12-22T08:01:37.264Z,87.07
2022-12-22T08:04:06.525Z,88.25
2022-12-22T08:06:35.458Z,73.85
2022-12-22T08:09:06.425Z,79.18
2022-12-22T08:11:35.059Z,90.00
2022-12-22T08:14:04.845Z,80.13
2022-12-22T08:16:33.358Z,88.90
2022-12-22T08:19:03.827Z,81.87
2022-12-22T08:21:33.456Z,90.47
2022-12-22T08:24:02.245Z,81.07
2022-12-22T08:26:36.567Z,63.00
2022-12-22T08:29:19.258Z,56.90
2022-12-22T08:31:56.218Z,54.03
2022-12-22T08:34:24.639Z,59.40
2022-12-22T08:36:56.676Z,63.23
2022-12-22T08:39:27.567Z,81.17
2022-12-22T08:41:57.778Z,65.97
2022-12-22T08:44:27.485Z,68.70
2022-12-22T08:46:56.868Z,51.43
2022-12-22T08:49:25.477Z,63.03
2022-12-22T08:51:55.477Z,55.37
2022-12-22T08:54:23.903Z,64.20
2022-12-22T08:56:53.115Z,74.93
2022-12-22T08:59:23.123Z,55.43
2022-12-22T09:01:52.918Z,67.20
2022-12-22T09:04:22.837Z,62.37
2022-12-22T09:06:53.035Z,63.77
2022-12-22T09:09:21.893Z,59.50
2022-12-22T09:11:50.503Z,63.50
2022-12-22T09:14:19.095Z,69.63
2022-12-22T09:16:49.087Z,64.70
2022-12-22T09:19:17.505Z,68.10
2022-12-22T09:21:46.238Z,55.60
2022-12-22T09:24:18.110Z,67.43
2022-12-22T09:26:46.690Z,66.77
2022-12-22T09:29:16.416Z,63.60
2022-12-22T09:31:45.031Z,60.70
2022-12-22T09:34:18.321Z,67.00
2022-12-22T09:36:48.737Z,80.03
2022-12-22T09:39:18.404Z,64.23
2022-12-22T09:41:52.152Z,63.57
2022-12-22T09:44:26.002Z,72.33
2022-12-22T09:46:55.973Z,74.20
2022-12-22T09:49:26.326Z,72.17
2022-12-22T09:51:58.001Z,56.60
2022-12-22T09:54:27.048Z,54.93
2022-12-22T09:56:55.471Z,51.23
2022-12-22T09:59:29.096Z,46.00
2022-12-22T10:02:20.656Z,53.90
2022-12-22T10:04:58.639Z,48.10
2022-12-22T10:07:33.505Z,50.50
2022-12-22T10:10:13.688Z,48.80
2022-12-22T10:12:43.633Z,51.03
2022-12-22T10:15:21.426Z,47.73
2022-12-22T10:17:52.273Z,55.33
2022-12-22T10:20:27.434Z,47.30
2022-12-22T10:22:59.224Z,47.20
2022-12-22T10:25:45.077Z,44.77
2022-12-22T10:28:25.245Z,47.67
2022-12-22T10:31:13.233Z,42.60
2022-12-22T10:33:47.068Z,42.30
2022-12-22T10:36:22.384Z,39.60
2022-12-22T10:38:57.735Z,43.07
2022-12-22T10:41:27.809Z,35.80
2022-12-22T10:43:57.655Z,39.30
2022-12-22T10:46:35.108Z,43.57
2022-12-22T10:49:19.997Z,48.10
2022-12-22T10:51:53.227Z,50.13
2022-12-22T10:54:33.184Z,43.20
2022-12-22T10:57:03.951Z,45.03
2022-12-22T10:59:33.815Z,46.40
2022-12-22T11:02:33.076Z,43.93
2022-12-22T11:05:07.741Z,46.63
2022-12-22T11:07:40.410Z,45.50
2022-12-22T11:10:21.328Z,44.73
2022-12-22T11:13:13.528Z,43.63
2022-12-22T11:15:48.882Z,44.77
2022-12-22T11:18:37.767Z,43.53
2022-12-22T11:21:10.469Z,51.83
2022-12-22T11:23:45.524Z,51.43
2022-12-22T11:26:20.096Z,48.50
2022-12-22T11:28:57.243Z,56.47
2022-12-22T11:31:38.788Z,39.80
2022-12-22T11:34:20.890Z,42.70
2022-12-22T11:37:05.634Z,34.97
2022-12-22T11:39:40.866Z,35.20
2022-12-22T11:42:23.303Z,34.70
2022-12-22T11:44:56.535Z,31.33
2022-12-22T11:47:30.687Z,34.20
2022-12-22T11:50:52.628Z,34.37
2022-12-22T11:53:29.724Z,34.53
2022-12-22T11:56:08.231Z,31.90
2022-12-22T11:58:49.837Z,34.60
2022-12-22T12:01:36.901Z,43.50
2022-12-22T12:04:33.907Z,30.83
2022-12-22T12:07:14.219Z,34.33
2022-12-22T12:09:48.890Z,36.33
2022-12-22T12:12:23.029Z,32.23
2022-12-22T12:15:00.147Z,37.23
2022-12-22T12:17:37.492Z,33.33
2022-12-22T12:20:31.013Z,32.23
2022-12-22T12:23:08.526Z,33.30
2022-12-22T12:25:40.789Z,32.70
2022-12-22T12:28:22.711Z,31.90
2022-12-22T12:30:55.231Z,40.47
2022-12-22T12:33:32.866Z,33.60
2022-12-22T12:36:04.629Z,28.33
2022-12-22T12:39:06.945Z,32.43
2022-12-22T12:41:34.070Z,30.47
2022-12-22T12:44:04.991Z,37.20
2022-12-22T12:47:10.862Z,34.70
2022-12-22T12:49:59.661Z,36.37
2022-12-22T12:53:16.801Z,30.17
2022-12-22T12:56:06.619Z,26.77
2022-12-22T12:58:50.657Z,33.40
2022-12-22T13:01:56.236Z,27.77
2022-12-22T13:05:06.147Z,29.83
2022-12-22T13:08:08.202Z,28.43
2022-12-22T13:10:39.728Z,33.80
2022-12-22T13:13:12.476Z,27.97
2022-12-22T13:15:42.323Z,28.50
2022-12-22T13:18:47.495Z,23.23
2022-12-22T13:24:25.144Z,30.03
2022-12-22T13:26:56.219Z,29.00
2022-12-22T13:29:29.641Z,26.00
2022-12-22T13:32:02.348Z,30.23
2022-12-22T13:35:04.281Z,26.03
2022-12-22T13:37:29.764Z,27.73
2022-12-22T13:40:21.210Z,22.43
2022-12-22T13:42:52.134Z,28.73
2022-12-22T13:45:30.425Z,26.93
2022-12-22T13:48:00.905Z,33.43
2022-12-22T13:50:32.760Z,25.73
2022-12-22T13:53:02.671Z,29.83
2022-12-22T13:55:33.865Z,26.90
2022-12-22T13:58:09.364Z,29.80
2022-12-22T14:00:40.065Z,26.90
2022-12-22T14:03:41.850Z,32.30
2022-12-22T14:06:21.661Z,30.67
2022-12-22T14:08:50.026Z,34.03
2022-12-22T14:11:20.237Z,31.43
2022-12-22T14:13:49.089Z,30.40
2022-12-22T14:16:25.067Z,31.30
2022-12-22T14:18:54.156Z,36.50
2022-12-22T14:21:22.946Z,41.77
2022-12-22T14:23:51.390Z,31.97
2022-12-22T14:26:24.517Z,31.27
2022-12-22T14:28:54.823Z,29.80
2022-12-22T14:31:23.173Z,32.70
2022-12-22T14:33:55.635Z,38.67
2022-12-22T14:36:25.960Z,40.00
2022-12-22T14:39:02.300Z,38.57
2022-12-22T14:41:51.519Z,22.97
2022-12-22T14:44:23.699Z,52.43
2022-12-22T14:47:07.044Z,39.37
2022-12-22T14:49:36.340Z,41.20
2022-12-22T14:52:19.682Z,41.07
2022-12-22T14:54:49.244Z,60.37
2022-12-22T14:57:30.443Z,46.53
2022-12-22T15:00:07.805Z,47.17
2022-12-22T15:02:40.098Z,43.03
2022-12-22T15:05:17.812Z,40.60
2022-12-22T15:08:08.351Z,40.50
2022-12-22T15:10:42.944Z,35.07
2022-12-22T15:13:18.031Z,32.53
2022-12-22T15:15:46.527Z,29.30
2022-12-22T15:18:16.253Z,24.73
2022-12-22T15:20:45.208Z,22.47
2022-12-22T15:23:17.172Z,22.67
2022-12-22T15:25:46.822Z,26.20
2022-12-22T15:28:16.709Z,26.20
2022-12-22T15:30:46.072Z,24.90
2022-12-22T15:33:16.204Z,28.03
2022-12-22T15:35:45.228Z,29.37
2022-12-22T15:38:15.393Z,29.97
2022-12-22T15:40:44.689Z,32.83
2022-12-22T15:43:53.946Z,34.07
2022-12-22T15:46:07.507Z,40.73
2022-12-22T15:48:37.928Z,37.40
2022-12-22T15:51:09.996Z,35.63
2022-12-22T15:53:38.529Z,38.23
2022-12-22T15:56:17.376Z,60.20
2022-12-22T15:58:47.089Z,37.77
2022-12-22T16:01:17.459Z,41.40
2022-12-22T16:03:46.933Z,34.57
2022-12-22T16:06:16.927Z,31.30
2022-12-22T16:08:50.525Z,29.07
2022-12-22T16:11:19.730Z,28.83
2022-12-22T16:13:48.829Z,37.13
2022-12-22T16:16:19.354Z,32.23
2022-12-22T16:18:48.784Z,36.80
2022-12-22T16:21:19.044Z,40.90
2022-12-22T16:23:49.675Z,38.57
2022-12-22T16:26:20.223Z,47.97
2022-12-22T16:28:48.853Z,39.60
2022-12-22T16:31:20.699Z,35.30
2022-12-22T16:33:49.873Z,41.60
2022-12-22T16:36:19.603Z,38.60
2022-12-22T16:38:48.841Z,39.53
2022-12-22T16:41:20.800Z,43.87
2022-12-22T16:43:49.775Z,42.23
2022-12-22T16:46:22.196Z,42.70
2022-12-22T16:48:52.440Z,45.67
2022-12-22T16:51:24.368Z,34.67
2022-12-22T16:53:53.293Z,39.30
2022-12-22T16:56:23.708Z,40.47
2022-12-22T16:58:52.400Z,44.00
2022-12-22T17:01:35.927Z,41.10
2022-12-22T17:04:09.091Z,45.97
2022-12-22T17:06:38.122Z,51.97
2022-12-22T17:09:11.413Z,47.73
2022-12-22T17:11:40.047Z,51.57
2022-12-22T17:14:18.229Z,56.67
2022-12-22T17:16:48.055Z,56.93
2022-12-22T17:19:18.197Z,54.47
2022-12-22T17:21:46.853Z,48.53
2022-12-22T17:24:22.849Z,62.00
2022-12-22T17:26:56.240Z,56.60
2022-12-22T17:29:25.792Z,48.63
2022-12-22T17:31:57.010Z,47.50
2022-12-22T17:34:25.647Z,63.40
2022-12-22T17:36:56.937Z,58.77
2022-12-22T17:39:26.890Z,50.93
2022-12-22T17:41:57.282Z,47.50
2022-12-22T17:44:28.780Z,52.20
2022-12-22T17:46:58.838Z,49.17
2022-12-22T17:49:27.846Z,54.60
2022-12-22T17:51:56.294Z,49.33
2022-12-22T17:54:26.106Z,53.13
2022-12-22T17:56:58.446Z,58.70
2022-12-22T17:59:27.271Z,53.87
2022-12-22T18:01:55.790Z,57.33
2022-12-22T18:04:25.971Z,57.37
2022-12-22T18:06:54.465Z,51.87
2022-12-22T18:09:26.234Z,56.07
2022-12-22T18:11:56.017Z,50.97
2022-12-22T18:14:24.823Z,53.07
2022-12-22T18:16:53.443Z,54.20
2022-12-22T18:19:22.107Z,49.17
2022-12-22T18:21:52.272Z,57.73
2022-12-22T18:24:21.466Z,55.90
2022-12-22T18:26:50.145Z,65.30
2022-12-22T18:29:19.146Z,53.47
2022-12-22T18:31:47.547Z,54.70
2022-12-22T18:34:16.271Z,46.70
2022-12-22T18:36:45.868Z,49.57
2022-12-22T18:39:19.170Z,52.87
2022-12-22T18:41:48.014Z,47.70
2022-12-22T18:44:18.173Z,52.07
2022-12-22T18:46:47.150Z,43.13
2022-12-22T18:49:16.297Z,47.00
2022-12-22T18:51:45.694Z,44.20
2022-12-22T18:54:23.952Z,48.47
2022-12-22T18:56:54.077Z,42.40
2022-12-22T18:59:25.176Z,45.70
2022-12-22T19:01:54.036Z,51.73
2022-12-22T19:04:22.565Z,48.20
2022-12-22T19:06:51.541Z,42.73
2022-12-22T19:09:23.417Z,52.40
2022-12-22T19:11:52.757Z,49.93
2022-12-22T19:14:22.501Z,54.13
2022-12-22T19:16:52.384Z,45.33
2022-12-22T19:19:22.938Z,50.00
2022-12-22T19:21:53.786Z,52.73
2022-12-22T19:24:26.011Z,60.00
2022-12-22T19:26:54.889Z,49.87
2022-12-22T19:29:23.987Z,55.10
2022-12-22T19:31:52.751Z,53.40
2022-12-22T19:34:22.485Z,54.10
2022-12-22T19:36:52.186Z,49.80
2022-12-22T19:39:20.606Z,46.00
2022-12-22T19:41:52.348Z,46.58
2022-12-22T19:44:23.773Z,37.53
2022-12-22T19:46:53.086Z,48.00
2022-12-22T19:49:27.139Z,38.55
2022-12-22T19:51:56.749Z,47.38
2022-12-22T19:54:25.640Z,58.07
2022-12-22T19:56:56.890Z,62.00
2022-12-22T19:59:37.290Z,69.43
2022-12-22T20:02:25.440Z,33.83
2022-12-22T20:04:54.880Z,50.08
2022-12-22T20:07:25.355Z,47.80
2022-12-22T20:09:54.420Z,42.20
2022-12-22T20:12:27.828Z,50.80
2022-12-22T20:14:56.751Z,37.83
2022-12-22T20:17:26.123Z,51.00
2022-12-22T20:19:55.214Z,21.20
2022-12-22T20:22:25.988Z,24.77
2022-12-22T20:24:55.688Z,19.77
2022-12-22T20:27:30.636Z,35.72
2022-12-22T20:29:59.906Z,47.20
2022-12-22T20:32:29.015Z,43.30
2022-12-22T20:34:57.727Z,40.85
2022-12-22T20:37:26.738Z,51.25
2022-12-22T20:39:56.394Z,66.73
2022-12-22T20:42:27.565Z,45.43
2022-12-22T20:45:03.977Z,36.65
2022-12-22T20:47:34.301Z,52.17
2022-12-22T20:50:03.093Z,47.53
2022-12-22T20:52:32.681Z,48.97
2022-12-22T20:55:03.100Z,45.87
2022-12-22T20:57:32.835Z,38.60
2022-12-22T21:00:01.665Z,47.87
2022-12-22T21:02:30.724Z,40.00
2022-12-22T21:04:59.714Z,42.03
2022-12-22T21:07:28.296Z,36.47
2022-12-22T21:09:57.179Z,32.17
2022-12-22T21:12:25.893Z,33.10
2022-12-22T21:14:55.846Z,23.77
2022-12-22T21:17:25.716Z,46.13
2022-12-22T21:19:56.427Z,37.38
2022-12-22T21:22:24.811Z,41.40
2022-12-22T21:24:53.139Z,49.10
2022-12-22T21:27:22.114Z,49.40
2022-12-22T21:29:50.795Z,35.93
2022-12-22T21:32:21.911Z,44.10
2022-12-22T21:34:51.359Z,38.30
2022-12-22T21:37:20.471Z,54.53
2022-12-22T21:39:48.817Z,38.23
2022-12-22T21:42:17.972Z,48.57
2022-12-22T21:44:46.587Z,53.33
2022-12-22T21:47:16.171Z,86.83
2022-12-22T21:49:45.970Z,40.58
2022-12-22T21:52:14.254Z,41.33
2022-12-22T21:54:42.646Z,46.53
2022-12-22T21:57:15.933Z,45.47
2022-12-22T21:59:44.241Z,19.85
2022-12-22T22:02:16.532Z,35.13
2022-12-22T22:04:54.612Z,36.87
2022-12-22T22:07:24.008Z,33.90
2022-12-22T22:09:52.608Z,33.83
2022-12-22T22:12:38.082Z,30.33
2022-12-22T22:15:08.294Z,29.97
2022-12-22T22:17:36.706Z,31.50
2022-12-22T22:20:09.966Z,34.27
2022-12-22T22:22:38.300Z,29.77
2022-12-22T22:25:07.841Z,32.53
2022-12-22T22:27:36.209Z,32.80
2022-12-22T22:30:05.335Z,26.80
2022-12-22T22:32:33.926Z,25.53
2022-12-22T22:35:02.211Z,32.23
2022-12-22T22:37:33.122Z,32.20
2022-12-22T22:40:01.574Z,29.17
2022-12-22T22:42:29.932Z,24.90
2022-12-22T22:44:58.422Z,31.40
2022-12-22T22:47:26.842Z,24.47
2022-12-22T22:49:55.238Z,27.40
2022-12-22T22:52:23.710Z,32.70
2022-12-22T22:54:58.153Z,40.30
2022-12-22T22:57:26.492Z,41.90
2022-12-22T22:59:55.956Z,48.33
2022-12-22T23:02:24.677Z,42.40
2022-12-22T23:04:53.138Z,49.40
2022-12-22T23:07:21.629Z,55.43
2022-12-22T23:09:50.107Z,49.63
2022-12-22T23:12:19.979Z,59.20
2022-12-22T23:14:48.456Z,43.53
2022-12-22T23:17:16.777Z,47.07
2022-12-22T23:19:47.069Z,51.13
2022-12-22T23:22:15.404Z,46.87
2022-12-22T23:24:43.703Z,56.00
2022-12-22T23:27:12.855Z,59.50
2022-12-22T23:29:43.108Z,91.65
2022-12-22T23:32:11.469Z,61.92
2022-12-22T23:34:39.861Z,73.47
2022-12-22T23:37:18.676Z,211.97
2022-12-22T23:39:47.803Z,141.35
2022-12-22T23:42:16.254Z,131.30
2022-12-22T23:44:46.064Z,178.83
2022-12-22T23:47:14.532Z,163.18
2022-12-22T23:49:42.941Z,189.43
2022-12-22T23:52:11.293Z,143.40
2022-12-22T23:54:41.474Z,133.00
2022-12-22T23:57:10.096Z,152.15
2022-12-22T23:59:38.554Z,178.52
